createdAt,value
2023-01-27T00:00:51.129Z,100811.78
2023-01-27T00:03:18.592Z,100822.00
2023-01-27T00:05:46.905Z,100819.47
2023-01-27T00:08:14.707Z,100826.34
2023-01-27T00:10:41.934Z,100819.66
2023-01-27T00:13:28.384Z,100821.25
2023-01-27T00:15:56.218Z,100810.97
2023-01-27T00:18:24.015Z,100821.25
2023-01-27T00:21:10.715Z,100821.25
2023-01-27T00:23:56.506Z,100812.72
2023-01-27T00:26:23.712Z,100814.31
2023-01-27T00:28:50.943Z,100819.53
2023-01-27T00:31:38.025Z,100826.34
2023-01-27T00:34:11.951Z,100812.56
2023-01-27T00:36:41.297Z,100828.09
2023-01-27T00:39:11.013Z,100828.63
2023-01-27T00:41:39.898Z,100827.63
2023-01-27T00:44:07.579Z,100829.50
2023-01-27T00:46:35.096Z,100826.84
2023-01-27T00:49:02.215Z,100834.34
2023-01-27T00:51:30.719Z,100840.44
2023-01-27T00:53:59.465Z,100846.38
2023-01-27T00:56:28.376Z,100844.66
2023-01-27T00:58:55.892Z,100842.91
2023-01-27T01:01:23.736Z,100842.91
2023-01-27T01:03:50.955Z,100838.53
2023-01-27T01:06:19.234Z,100834.09
2023-01-27T01:08:48.986Z,100835.03
2023-01-27T01:11:17.618Z,100851.25
2023-01-27T01:13:46.153Z,100850.38
2023-01-27T01:16:22.501Z,100841.44
2023-01-27T01:18:49.800Z,100847.44
2023-01-27T01:21:17.181Z,100848.44
2023-01-27T01:23:46.297Z,100856.09
2023-01-27T01:26:15.379Z,100847.66
2023-01-27T01:28:44.763Z,100835.59
2023-01-27T01:31:18.143Z,100854.47
2023-01-27T01:33:46.061Z,100849.38
2023-01-27T01:36:16.279Z,100842.19
2023-01-27T01:38:43.500Z,100853.38
2023-01-27T01:41:19.856Z,100850.75
2023-01-27T01:43:47.495Z,100847.28
2023-01-27T01:46:14.658Z,100850.72
2023-01-27T01:48:57.581Z,100852.38
2023-01-27T01:52:09.781Z,100857.47
2023-01-27T01:54:42.201Z,100851.63
2023-01-27T01:57:22.259Z,100853.38
2023-01-27T02:00:03.548Z,100817.88
2023-01-27T02:02:41.146Z,100851.63
2023-01-27T02:05:21.989Z,100843.94
2023-01-27T02:08:05.095Z,100849.03
2023-01-27T02:10:34.203Z,100843.94
2023-01-27T02:13:01.721Z,100851.63
2023-01-27T02:15:33.225Z,100841.28
2023-01-27T02:18:01.826Z,100849.69
2023-01-27T02:20:41.577Z,100841.72
2023-01-27T02:23:28.018Z,100859.22
2023-01-27T02:26:05.471Z,100865.91
2023-01-27T02:28:33.522Z,100856.56
2023-01-27T02:31:01.223Z,100866.78
2023-01-27T02:33:28.586Z,100859.09
2023-01-27T02:35:55.591Z,100861.56
2023-01-27T02:38:23.680Z,100865.81
2023-01-27T02:40:55.325Z,100858.84
2023-01-27T02:43:22.469Z,100861.56
2023-01-27T02:45:49.631Z,100857.22
2023-01-27T02:48:16.844Z,100869.00
2023-01-27T02:50:44.075Z,100851.78
2023-01-27T02:53:11.645Z,100875.16
2023-01-27T02:55:38.845Z,100857.19
2023-01-27T02:58:06.978Z,100865.81
2023-01-27T03:00:47.180Z,100869.28
2023-01-27T03:03:14.324Z,100865.81
2023-01-27T03:05:41.903Z,100862.44
2023-01-27T03:08:09.226Z,100869.94
2023-01-27T03:10:36.592Z,100876.91
2023-01-27T03:13:04.079Z,100874.25
2023-01-27T03:15:49.693Z,100887.09
2023-01-27T03:18:17.502Z,100875.97
2023-01-27T03:20:47.067Z,100880.38
2023-01-27T03:23:19.181Z,100879.59
2023-01-27T03:25:50.050Z,100879.59
2023-01-27T03:28:17.420Z,100877.97
2023-01-27T03:31:08.128Z,100877.03
2023-01-27T03:33:53.351Z,100865.69
2023-01-27T03:36:45.413Z,100868.28
2023-01-27T03:39:31.399Z,100868.47
2023-01-27T03:42:17.038Z,100858.97
2023-01-27T03:45:03.314Z,100865.91
2023-01-27T03:47:30.534Z,100834.75
2023-01-27T03:49:57.772Z,100865.16
2023-01-27T03:52:24.873Z,100868.69
2023-01-27T03:54:51.944Z,100873.75
2023-01-27T03:57:19.119Z,100861.97
2023-01-27T03:59:46.192Z,100862.69
2023-01-27T04:02:32.125Z,100867.16
2023-01-27T04:05:17.587Z,100864.53
2023-01-27T04:07:44.672Z,100867.28
2023-01-27T04:10:11.887Z,100865.59
2023-01-27T04:12:39.010Z,100869.75
2023-01-27T04:15:06.743Z,100880.75
2023-01-27T04:17:39.128Z,100881.44
2023-01-27T04:20:06.766Z,100880.53
2023-01-27T04:22:33.918Z,100883.19
2023-01-27T04:25:00.978Z,100889.91
2023-01-27T04:27:28.185Z,100893.25
2023-01-27T04:29:55.284Z,100896.81
2023-01-27T04:32:22.417Z,100900.19
2023-01-27T04:34:49.558Z,100904.31
2023-01-27T04:37:16.644Z,100912.81
2023-01-27T04:39:45.905Z,100906.66
2023-01-27T04:42:13.107Z,100908.25
2023-01-27T04:44:40.414Z,100902.44
2023-01-27T04:47:07.610Z,100902.53
2023-01-27T04:49:34.677Z,100910.25
2023-01-27T04:52:01.765Z,100910.25
2023-01-27T04:54:28.795Z,100909.41
2023-01-27T04:57:01.399Z,100920.44
2023-01-27T04:59:28.604Z,100918.56
2023-01-27T05:01:56.051Z,100927.28
2023-01-27T05:04:23.278Z,100913.22
2023-01-27T05:06:50.342Z,100925.53
2023-01-27T05:09:17.583Z,100930.63
2023-01-27T05:11:44.780Z,100923.06
2023-01-27T05:14:14.094Z,100929.03
2023-01-27T05:16:41.345Z,100923.00
2023-01-27T05:19:09.452Z,100929.91
2023-01-27T05:21:36.659Z,100903.16
2023-01-27T05:24:03.904Z,100891.75
2023-01-27T05:26:31.040Z,100930.75
2023-01-27T05:28:59.083Z,100921.94
2023-01-27T05:31:29.278Z,100928.91
2023-01-27T05:33:58.518Z,100928.16
2023-01-27T05:36:26.788Z,100934.00
2023-01-27T05:38:55.092Z,100942.44
2023-01-27T05:41:22.999Z,100950.94
2023-01-27T05:43:55.277Z,100940.47
2023-01-27T05:46:27.759Z,100949.28
2023-01-27T05:48:57.013Z,100949.28
2023-01-27T05:51:26.033Z,100935.38
2023-01-27T05:53:54.108Z,100944.03
2023-01-27T05:56:21.952Z,100947.41
2023-01-27T05:58:49.488Z,100950.03
2023-01-27T06:01:19.300Z,100940.56
2023-01-27T06:03:47.063Z,100940.69
2023-01-27T06:06:16.344Z,100949.28
2023-01-27T06:08:44.164Z,100947.63
2023-01-27T06:11:11.687Z,100947.53
2023-01-27T06:13:39.851Z,100950.88
2023-01-27T06:16:12.389Z,100943.91
2023-01-27T06:18:40.323Z,100950.75
2023-01-27T06:21:10.104Z,100948.25
2023-01-27T06:23:38.087Z,100953.31
2023-01-27T06:26:16.651Z,100962.81
2023-01-27T06:28:44.286Z,100954.09
2023-01-27T06:31:14.265Z,100966.16
2023-01-27T06:33:41.811Z,100969.66
2023-01-27T06:36:12.130Z,100967.09
2023-01-27T06:38:39.445Z,100968.91
2023-01-27T06:41:06.767Z,100954.78
2023-01-27T06:43:34.255Z,100978.81
2023-01-27T06:46:04.383Z,100974.59
2023-01-27T06:48:32.648Z,100968.38
2023-01-27T06:50:59.984Z,100972.88
2023-01-27T06:53:27.628Z,100948.38
2023-01-27T06:56:01.658Z,100975.94
2023-01-27T06:58:29.921Z,100976.09
2023-01-27T07:00:57.808Z,100957.63
2023-01-27T07:03:26.126Z,100977.81
2023-01-27T07:05:53.854Z,100976.22
2023-01-27T07:08:21.033Z,100967.53
2023-01-27T07:10:48.181Z,100974.47
2023-01-27T07:13:15.899Z,100983.91
2023-01-27T07:15:43.294Z,100984.78
2023-01-27T07:18:13.895Z,100988.13
2023-01-27T07:20:41.707Z,100986.53
2023-01-27T07:23:10.133Z,100975.94
2023-01-27T07:25:37.296Z,100993.34
2023-01-27T07:28:04.623Z,100989.25
2023-01-27T07:30:34.053Z,100999.56
2023-01-27T07:33:09.573Z,101008.13
2023-01-27T07:35:38.193Z,101009.03
2023-01-27T07:38:07.103Z,101015.78
2023-01-27T07:40:34.966Z,101014.81
2023-01-27T07:43:02.711Z,100999.31
2023-01-27T07:45:30.626Z,101009.47
2023-01-27T07:48:04.955Z,101013.69
2023-01-27T07:50:32.178Z,101014.44
2023-01-27T07:53:04.012Z,101011.09
2023-01-27T07:55:33.164Z,101023.28
2023-01-27T07:58:00.516Z,101022.50
2023-01-27T08:00:29.213Z,101024.31
2023-01-27T08:02:57.932Z,101025.13
2023-01-27T08:05:26.108Z,101041.88
2023-01-27T08:07:54.762Z,101034.94
2023-01-27T08:10:22.719Z,101039.00
2023-01-27T08:12:49.868Z,101045.00
2023-01-27T08:15:18.970Z,101041.50
2023-01-27T08:17:56.574Z,101042.28
2023-01-27T08:20:25.993Z,101048.09
2023-01-27T08:22:53.334Z,101044.56
2023-01-27T08:25:20.617Z,101039.22
2023-01-27T08:27:55.659Z,101047.81
2023-01-27T08:30:23.306Z,101046.03
2023-01-27T08:32:50.506Z,101051.00
2023-01-27T08:35:17.862Z,101055.94
2023-01-27T08:37:48.461Z,101070.50
2023-01-27T08:40:15.924Z,101067.84
2023-01-27T08:42:43.056Z,101074.41
2023-01-27T08:45:10.533Z,101084.75
2023-01-27T08:47:37.612Z,101086.34
2023-01-27T08:50:04.857Z,101086.34
2023-01-27T08:52:32.017Z,101082.00
2023-01-27T08:54:59.214Z,101083.94
2023-01-27T08:57:26.569Z,101067.47
2023-01-27T08:59:53.630Z,101087.34
2023-01-27T09:02:22.570Z,101082.88
2023-01-27T09:04:49.720Z,101096.88
2023-01-27T09:07:17.596Z,101089.97
2023-01-27T09:09:48.732Z,101099.44
2023-01-27T09:12:16.215Z,101081.25
2023-01-27T09:14:43.400Z,101102.03
2023-01-27T09:17:10.641Z,101102.31
2023-01-27T09:19:37.621Z,101094.38
2023-01-27T09:22:06.040Z,101100.81
2023-01-27T09:24:33.312Z,101095.59
2023-01-27T09:27:01.174Z,101109.28
2023-01-27T09:29:29.496Z,101111.00
2023-01-27T09:31:56.744Z,101106.09
2023-01-27T09:34:23.877Z,101102.72
2023-01-27T09:36:57.782Z,101111.44
2023-01-27T09:39:26.449Z,101121.63
2023-01-27T09:42:14.684Z,101131.81
2023-01-27T09:44:41.744Z,101126.72
2023-01-27T09:47:11.785Z,101130.03
2023-01-27T09:50:10.907Z,101123.22
2023-01-27T09:53:01.642Z,101121.63
2023-01-27T09:55:31.634Z,101125.13
2023-01-27T09:58:09.266Z,101115.06
2023-01-27T10:00:53.360Z,101117.78
2023-01-27T10:03:38.842Z,101111.84
2023-01-27T10:06:11.484Z,101107.75
2023-01-27T10:08:50.741Z,101113.84
2023-01-27T10:11:58.843Z,101107.16
2023-01-27T10:14:47.393Z,101101.38
2023-01-27T10:17:24.438Z,101114.38
2023-01-27T10:19:57.423Z,101118.00
2023-01-27T10:22:46.567Z,101121.47
2023-01-27T10:25:32.672Z,101113.84
2023-01-27T10:28:09.911Z,101116.25
2023-01-27T10:30:38.538Z,101121.22
2023-01-27T10:33:44.013Z,101128.06
2023-01-27T10:36:50.549Z,101118.81
2023-01-27T10:39:44.364Z,101119.00
2023-01-27T10:42:23.404Z,101134.44
2023-01-27T10:45:06.122Z,101131.28
2023-01-27T10:47:39.140Z,101135.56
2023-01-27T10:50:19.900Z,101128.00
2023-01-27T10:52:58.275Z,101146.16
2023-01-27T10:55:44.005Z,101138.69
2023-01-27T10:58:34.345Z,101141.31
2023-01-27T11:01:20.305Z,101142.91
2023-01-27T11:03:55.056Z,101144.50
2023-01-27T11:06:27.571Z,101136.22
2023-01-27T11:09:05.693Z,101139.84
2023-01-27T11:11:46.693Z,101143.56
2023-01-27T11:14:27.752Z,101140.44
2023-01-27T11:17:08.426Z,101138.72
2023-01-27T11:19:45.109Z,101136.72
2023-01-27T11:22:24.480Z,101134.84
2023-01-27T11:25:30.033Z,101131.38
2023-01-27T11:28:31.439Z,101139.97
2023-01-27T11:31:14.297Z,101129.34
2023-01-27T11:34:11.002Z,101143.28
2023-01-27T11:36:38.246Z,101143.16
2023-01-27T11:39:06.938Z,101142.41
2023-01-27T11:41:38.920Z,101138.88
2023-01-27T11:44:22.469Z,101148.00
2023-01-27T11:46:51.060Z,101139.41
2023-01-27T11:49:28.707Z,101141.06
2023-01-27T11:52:11.354Z,101141.91
2023-01-27T11:54:47.099Z,101149.75
2023-01-27T11:57:22.584Z,101137.69
2023-01-27T11:59:55.772Z,101139.53
2023-01-27T12:02:44.871Z,101142.03
2023-01-27T12:05:19.306Z,101139.53
2023-01-27T12:07:56.568Z,101143.16
2023-01-27T12:10:35.443Z,101140.75
2023-01-27T12:13:10.193Z,101143.44
2023-01-27T12:15:47.360Z,101134.72
2023-01-27T12:18:15.802Z,101136.47
2023-01-27T12:20:49.554Z,101133.09
2023-01-27T12:23:19.456Z,101122.03
2023-01-27T12:25:51.159Z,101131.38
2023-01-27T12:28:52.432Z,101124.13
2023-01-27T12:31:30.397Z,101131.13
2023-01-27T12:34:13.539Z,101135.41
2023-01-27T12:36:43.598Z,101126.81
2023-01-27T12:39:57.227Z,101126.88
2023-01-27T12:42:43.025Z,101121.88
2023-01-27T12:45:31.344Z,101121.16
2023-01-27T12:48:13.039Z,101125.31
2023-01-27T12:50:42.215Z,101127.88
2023-01-27T12:53:17.629Z,101123.06
2023-01-27T12:56:00.283Z,101127.34
2023-01-27T12:58:40.586Z,101117.06
2023-01-27T13:01:34.140Z,101128.16
2023-01-27T13:04:03.935Z,101125.53
2023-01-27T13:06:37.647Z,101125.59
2023-01-27T13:09:05.354Z,101137.59
2023-01-27T13:11:39.777Z,101132.63
2023-01-27T13:14:18.015Z,101136.84
2023-01-27T13:16:53.288Z,101129.88
2023-01-27T13:19:23.195Z,101132.56
2023-01-27T13:21:53.537Z,101139.38
2023-01-27T13:24:29.661Z,101140.19
2023-01-27T13:26:57.957Z,101142.50
2023-01-27T13:29:30.748Z,101132.97
2023-01-27T13:32:11.827Z,101126.88
2023-01-27T13:34:45.978Z,101131.00
2023-01-27T13:37:38.005Z,101148.25
2023-01-27T13:40:32.343Z,101146.44
2023-01-27T13:43:24.921Z,101142.09
2023-01-27T13:46:00.502Z,101153.97
2023-01-27T13:48:33.473Z,101151.50
2023-01-27T13:51:03.740Z,101151.50
2023-01-27T13:53:31.101Z,101160.09
2023-01-27T13:56:37.291Z,101156.59
2023-01-27T13:59:13.155Z,101156.47
2023-01-27T14:01:47.019Z,101159.81
2023-01-27T14:04:32.665Z,101150.97
2023-01-27T14:07:22.740Z,101166.53
2023-01-27T14:09:59.052Z,101169.75
2023-01-27T14:13:04.391Z,101164.38
2023-01-27T14:15:40.581Z,101174.84
2023-01-27T14:18:27.831Z,101178.34
2023-01-27T14:21:13.223Z,101173.97
2023-01-27T14:24:01.369Z,101174.84
2023-01-27T14:26:56.634Z,101176.53
2023-01-27T14:29:54.795Z,101171.09
2023-01-27T14:32:34.202Z,101183.00
2023-01-27T14:35:32.137Z,101171.81
2023-01-27T14:38:23.427Z,101182.09
2023-01-27T14:41:21.434Z,101182.75
2023-01-27T14:43:59.876Z,101178.84
2023-01-27T14:46:44.885Z,101192.69
2023-01-27T14:49:32.152Z,101189.31
2023-01-27T14:52:12.426Z,101188.53
2023-01-27T14:55:18.021Z,101196.31
2023-01-27T14:58:23.179Z,101200.53
2023-01-27T15:01:14.857Z,101199.50
2023-01-27T15:04:03.248Z,101199.50
2023-01-27T15:06:38.133Z,101196.94
2023-01-27T15:09:30.271Z,101197.63
2023-01-27T15:12:16.738Z,101192.53
2023-01-27T15:14:49.622Z,101200.84
2023-01-27T15:17:37.850Z,101198.97
2023-01-27T15:20:30.835Z,101190.38
2023-01-27T15:23:40.302Z,101205.53
2023-01-27T15:26:09.979Z,101197.06
2023-01-27T15:28:40.274Z,101203.94
2023-01-27T15:31:24.298Z,101195.06
2023-01-27T15:34:03.715Z,101204.72
2023-01-27T15:36:58.901Z,101203.94
2023-01-27T15:39:40.494Z,101212.22
2023-01-27T15:42:11.558Z,101209.53
2023-01-27T15:44:41.710Z,101214.53
2023-01-27T15:47:17.547Z,101210.25
2023-01-27T15:49:52.058Z,101216.09
2023-01-27T15:52:51.526Z,101213.53
2023-01-27T15:55:26.128Z,101216.94
2023-01-27T15:58:04.694Z,101222.13
2023-01-27T16:00:38.290Z,101222.00
2023-01-27T16:03:19.800Z,101222.00
2023-01-27T16:05:52.432Z,101225.31
2023-01-27T16:08:20.636Z,101223.59
2023-01-27T16:10:47.832Z,101220.09
2023-01-27T16:13:26.500Z,101222.38
2023-01-27T16:16:19.883Z,101222.59
2023-01-27T16:19:11.099Z,101233.63
2023-01-27T16:21:51.413Z,101231.00
2023-01-27T16:24:24.480Z,101241.91
2023-01-27T16:27:07.603Z,101231.59
2023-01-27T16:29:47.586Z,101245.28
2023-01-27T16:32:20.908Z,101239.31
2023-01-27T16:34:54.463Z,101250.38
2023-01-27T16:37:28.075Z,101247.00
2023-01-27T16:39:55.177Z,101248.47
2023-01-27T16:42:30.937Z,101238.00
2023-01-27T16:45:02.644Z,101198.44
2023-01-27T16:47:44.055Z,101232.63
2023-01-27T16:50:36.196Z,101248.91
2023-01-27T16:53:05.840Z,101247.91
2023-01-27T16:55:32.989Z,101244.34
2023-01-27T16:58:01.874Z,101251.09
2023-01-27T17:00:32.528Z,101243.97
2023-01-27T17:03:03.956Z,101252.25
2023-01-27T17:05:31.360Z,101264.19
2023-01-27T17:08:30.627Z,101259.09
2023-01-27T17:11:05.152Z,101265.78
2023-01-27T17:13:44.669Z,101257.03
2023-01-27T17:16:22.478Z,101264.81
2023-01-27T17:18:52.919Z,101277.41
2023-01-27T17:21:48.475Z,101277.41
2023-01-27T17:24:17.782Z,101275.50
2023-01-27T17:26:48.351Z,101280.38
2023-01-27T17:29:20.111Z,101282.69
2023-01-27T17:31:47.820Z,101278.25
2023-01-27T17:34:19.544Z,101284.25
2023-01-27T17:37:15.339Z,101288.25
2023-01-27T17:39:43.558Z,101283.81
2023-01-27T17:42:15.871Z,101289.72
2023-01-27T17:44:44.215Z,101292.75
2023-01-27T17:47:18.505Z,101296.09
2023-01-27T17:49:48.437Z,101316.25
2023-01-27T17:52:25.101Z,101293.53
2023-01-27T17:54:52.578Z,101321.03
2023-01-27T17:57:37.231Z,101319.13
2023-01-27T18:00:12.687Z,101319.03
2023-01-27T18:02:45.514Z,101326.44
2023-01-27T18:05:21.004Z,101313.56
2023-01-27T18:07:48.783Z,101318.34
2023-01-27T18:10:28.034Z,101308.16
2023-01-27T18:12:55.334Z,101313.25
2023-01-27T18:15:37.585Z,101316.75
2023-01-27T18:18:26.305Z,101315.78
2023-01-27T18:21:08.426Z,101328.50
2023-01-27T18:23:36.522Z,101336.94
2023-01-27T18:26:42.520Z,101324.84
2023-01-27T18:29:22.914Z,101345.34
2023-01-27T18:32:10.426Z,101336.75
2023-01-27T18:34:46.479Z,101350.25
2023-01-27T18:37:25.334Z,101349.22
2023-01-27T18:39:52.858Z,101349.94
2023-01-27T18:42:21.589Z,101353.25
2023-01-27T18:44:53.513Z,101357.47
2023-01-27T18:47:20.639Z,101354.00
2023-01-27T18:49:57.975Z,101358.97
2023-01-27T18:52:25.415Z,101360.56
2023-01-27T18:54:58.802Z,101368.19
2023-01-27T18:57:25.902Z,101347.22
2023-01-27T18:59:53.068Z,101359.59
2023-01-27T19:02:20.804Z,101356.75
2023-01-27T19:04:48.273Z,101367.00
2023-01-27T19:07:17.972Z,101374.69
2023-01-27T19:09:46.988Z,101343.22
2023-01-27T19:12:14.265Z,101375.22
2023-01-27T19:14:42.149Z,101377.59
2023-01-27T19:17:24.415Z,101375.59
2023-01-27T19:19:51.766Z,101379.13
2023-01-27T19:22:20.905Z,101379.97
2023-01-27T19:24:48.811Z,101367.72
2023-01-27T19:27:17.950Z,101385.78
2023-01-27T19:29:45.225Z,101364.44
2023-01-27T19:32:14.602Z,101382.25
2023-01-27T19:34:42.034Z,101381.41
2023-01-27T19:37:19.181Z,101387.19
2023-01-27T19:39:47.040Z,101388.75
2023-01-27T19:42:16.042Z,101381.78
2023-01-27T19:44:43.343Z,101387.66
2023-01-27T19:47:12.589Z,101383.34
2023-01-27T19:49:40.633Z,101388.44
2023-01-27T19:52:07.956Z,101381.44
2023-01-27T19:54:35.302Z,101390.81
2023-01-27T19:57:02.509Z,101384.69
2023-01-27T19:59:29.643Z,101391.78
2023-01-27T20:01:57.200Z,101386.53
2023-01-27T20:04:24.497Z,101398.41
2023-01-27T20:06:51.645Z,101388.25
2023-01-27T20:09:21.590Z,101389.84
2023-01-27T20:11:48.741Z,101400.00
2023-01-27T20:14:26.073Z,101398.25
2023-01-27T20:16:53.270Z,101401.56
2023-01-27T20:19:20.425Z,101402.53
2023-01-27T20:21:47.629Z,101396.75
2023-01-27T20:24:19.457Z,101393.00
2023-01-27T20:26:47.061Z,101411.72
2023-01-27T20:29:14.427Z,101409.81
2023-01-27T20:31:42.179Z,101420.13
2023-01-27T20:34:09.453Z,101406.31
2023-01-27T20:36:36.675Z,101410.41
2023-01-27T20:39:04.101Z,101413.59
2023-01-27T20:41:31.300Z,101406.56
2023-01-27T20:44:00.705Z,101412.56
2023-01-27T20:46:29.253Z,101415.00
2023-01-27T20:48:58.373Z,101405.47
2023-01-27T20:51:25.491Z,101393.38
2023-01-27T20:53:52.757Z,101407.22
2023-01-27T20:56:23.017Z,101420.59
2023-01-27T20:58:50.926Z,101418.75
2023-01-27T21:01:20.639Z,101402.31
2023-01-27T21:03:48.437Z,101412.66
2023-01-27T21:06:17.939Z,101417.03
2023-01-27T21:08:45.090Z,101411.78
2023-01-27T21:11:13.235Z,101418.75
2023-01-27T21:13:40.470Z,101418.75
2023-01-27T21:16:08.603Z,101422.88
2023-01-27T21:18:36.804Z,101415.25
2023-01-27T21:21:04.810Z,101408.44
2023-01-27T21:23:33.905Z,101411.03
2023-01-27T21:26:11.866Z,101393.56
2023-01-27T21:28:38.995Z,101391.91
2023-01-27T21:31:12.010Z,101416.66
2023-01-27T21:33:40.886Z,101406.50
2023-01-27T21:36:10.761Z,101406.50
2023-01-27T21:38:38.415Z,101401.41
2023-01-27T21:41:14.314Z,101396.28
2023-01-27T21:43:59.783Z,101407.28
2023-01-27T21:46:26.868Z,101396.19
2023-01-27T21:48:54.023Z,101387.25
2023-01-27T21:51:21.863Z,101396.81
2023-01-27T21:53:49.007Z,101392.50
2023-01-27T21:56:16.192Z,101392.31
2023-01-27T21:58:43.259Z,101397.78
2023-01-27T22:01:10.969Z,101389.19
2023-01-27T22:03:38.590Z,101396.34
2023-01-27T22:06:07.299Z,101394.59
2023-01-27T22:08:35.200Z,101389.19
2023-01-27T22:11:06.690Z,101391.78
2023-01-27T22:13:34.168Z,101402.84
2023-01-27T22:16:02.251Z,101387.25
2023-01-27T22:18:29.968Z,101385.84
2023-01-27T22:21:00.782Z,101394.44
2023-01-27T22:23:28.006Z,101387.63
2023-01-27T22:25:55.229Z,101391.09
2023-01-27T22:28:26.886Z,101390.94
2023-01-27T22:30:54.714Z,101386.72
2023-01-27T22:33:21.919Z,101388.50
2023-01-27T22:35:49.050Z,101396.34
2023-01-27T22:38:16.202Z,101394.78
2023-01-27T22:40:43.330Z,101391.47
2023-01-27T22:43:10.902Z,101382.19
2023-01-27T22:45:39.132Z,101398.44
2023-01-27T22:48:06.234Z,101362.03
2023-01-27T22:50:33.273Z,101392.56
2023-01-27T22:53:00.470Z,101385.59
2023-01-27T22:55:27.494Z,101376.25
2023-01-27T22:57:54.600Z,101389.34
2023-01-27T23:00:21.748Z,101376.41
2023-01-27T23:02:48.993Z,101387.94
2023-01-27T23:05:16.554Z,101382.09
2023-01-27T23:07:43.771Z,101367.47
2023-01-27T23:10:11.277Z,101380.59
2023-01-27T23:12:38.422Z,101377.25
2023-01-27T23:15:06.195Z,101377.41
2023-01-27T23:17:33.325Z,101367.09
2023-01-27T23:20:00.395Z,101366.75
2023-01-27T23:22:27.529Z,101373.94
2023-01-27T23:24:54.605Z,101372.97
2023-01-27T23:27:21.793Z,101375.50
2023-01-27T23:29:48.903Z,101368.59
2023-01-27T23:32:16.014Z,101371.84
2023-01-27T23:34:43.147Z,101371.50
2023-01-27T23:37:10.283Z,101367.13
2023-01-27T23:39:37.428Z,101363.63
2023-01-27T23:42:04.693Z,101362.59
2023-01-27T23:44:31.716Z,101370.09
2023-01-27T23:46:58.841Z,101368.03
2023-01-27T23:49:25.891Z,101368.88
2023-01-27T23:51:53.056Z,101370.63
2023-01-27T23:54:20.095Z,101369.75
2023-01-27T23:56:47.226Z,101362.94
2023-01-27T23:59:14.384Z,101358.56
